Aérodrome :
LOGIN :

S'inscrire | Disclaimer

   EN    FR    IT 

 










Légende :    VFR   VFR Marginal   IFR   IFR Intensif   IFR Très Intensif
Visi : 
Plafond : 
>= 8 km
>= 3000ft
5 à 8 km
1000 à 3000 ft
1500m à 5 km
500 à 1000 ft
800 à 1500m
200 à 500 ft
< 800m
< 200 ft
Symboles :   Orages  Brouillard  Fortes neiges  Fortes précipitations  Vent > 20 kt
SIGMETs :   Divers  Orages  Givrage  Turbulence  Onde Orograph.  Cendres Volcan.







- Altitude de l'aérodrome : 13 ft
- Code IATA : OST


EBOS - Oostend bruges Int.

METARs EXPIRÉS :
  • 241420Z 24014KT 4800 -RADZ BR FEW006 SCT010 BKN013 17/15 Q1015 TEMPO BKN009
  • 241350Z 23010KT 4500 -RADZ BR FEW006 SCT009 BKN012 17/15 Q1015 TEMPO BKN008
  • 241320Z 24015KT 6000 -RADZ FEW007 BKN013 18/15 Q1015 TEMPO 4000 -RADZ BKN007
  • 241250Z 23013KT 9999 -RADZ FEW009 BKN013 17/14 Q1015 NOSIG
  • 241220Z 23014KT 9999 BKN014 18/14 Q1016 NOSIG
  • 241150Z 23012KT 9999 BKN014 18/14 Q1016 NOSIG

Prévision TAF périmée.
Pas de NOTAMs connus pour ce terrain.



MET'MAP, la Météo Aéronautique d'un coup d'oeil ! - Copyright ORBIFLY Décembre 2007 - Disclaimer

ORBIFLY MET'MAP TEAM :

Programmation & Développement : Alexandra Zaïnal
Conception & Développement : Baudouin d'Aumeries
Co-Programmation & Développement : Marc-Olivier Méhu
Soutien technique & logistique : Manuel Goepfert

Contact : metmap@orbifly.com




SOURCES & CREDITS :

   NOAA